Weather reports worldwide

Advertisment
Dona Mencia, Spain (8412): temperature & dewpoint: 13.03.2019 09:00:00 - 19.03.2019 09:00:00 (CET)Dona Mencia, Spain (8412): wind speed & gusts: 13.03.2019 09:00:00 - 19.03.2019 09:00:00 (CET)Dona Mencia, Spain (8412): wind direction: 13.03.2019 09:00:00 - 19.03.2019 09:00:00 (CET)Dona Mencia, Spain (8412): precipitation: 13.03.2019 09:00:00 - 19.03.2019 09:00:00 (CET)
Date & Time tt [°C] td [°C] ff [km/h] ff [kn] fx [km/h] fx [kn] dd rr [mm]
19.03.2019 09:00:00 10,8 1,3 4 2 15 8 SSE 0,0
19.03.2019 08:00:00 8,8 3,4 9 5 12 6 ESE 0,0
19.03.2019 07:00:00 8,3 1,3 7 4 9 5 ESE -
19.03.2019 06:00:00 10,1 1,5 4 2 7 4 N 0,0
19.03.2019 05:00:00 10,7 -2,7 3 2 6 4 E 0,0
19.03.2019 04:00:00 10,6 5,6 2 1 8 4 NNE 0,0
19.03.2019 03:00:00 10,0 6,7 5 3 13 7 NNW 0,0
19.03.2019 02:00:00 10,6 6,5 7 4 14 8 NNW 0,0
19.03.2019 01:00:00 11,5 4,5 6 3 16 9 NW -
19.03.2019 00:00:00 12,5 -1,4 1 1 7 4 ENE 0,0
18.03.2019 23:00:00 12,2 4,6 5 3 11 6 N 0,0
18.03.2019 22:00:00 13,2 4,3 6 3 16 9 NW 0,0
18.03.2019 21:00:00 14,3 3,8 8 5 16 9 N 0,0
18.03.2019 20:00:00 15,2 2,7 5 3 13 7 NNW 0,0
18.03.2019 19:00:00 17,6 0,6 1 0 14 8 ENE -
18.03.2019 18:00:00 19,8 2,7 3 2 18 10 WSW 0,0
18.03.2019 17:00:00 18,3 3,0 6 3 18 10 NW 0,0
18.03.2019 16:00:00 19,4 3,6 3 2 26 14 WNW 0,0
18.03.2019 15:00:00 18,8 3,8 7 4 19 10 W 0,0
18.03.2019 14:00:00 18,0 3,8 9 5 18 10 NW 0,0
18.03.2019 13:00:00 17,0 3,6 2 1 16 9 E -
18.03.2019 12:00:00 16,2 4,6 6 4 23 12 SE 0,0
18.03.2019 11:00:00 15,5 5,5 9 5 17 9 ESE 0,0
18.03.2019 10:00:00 13,3 4,5 6 3 11 6 WNW 0,0
18.03.2019 09:00:00 12,7 4,6 4 2 9 5 SE 0,0
18.03.2019 08:00:00 10,2 3,2 4 2 8 5 ENE 0,0
18.03.2019 07:00:00 10,1 2,3 3 2 8 5 NNW -
18.03.2019 06:00:00 9,6 1,7 6 3 13 7 NNW 0,0
18.03.2019 05:00:00 10,6 1,5 7 4 10 6 NNW 0,0
18.03.2019 04:00:00 11,5 1,5 5 3 8 5 NNW 0,0
18.03.2019 03:00:00 12,0 1,3 3 2 6 3 NW 0,0
18.03.2019 02:00:00 12,5 1,5 2 1 5 3 NW 0,0
18.03.2019 01:00:00 12,9 1,5 3 2 10 5 N -
18.03.2019 00:00:00 12,6 0,6 4 2 13 7 E 0,0
17.03.2019 23:00:00 12,4 0,4 8 5 13 7 ESE 0,0
17.03.2019 22:00:00 13,9 0,2 1 0 11 6 W 0,0
17.03.2019 21:00:00 15,5 -0,7 4 2 19 10 NW 0,0
17.03.2019 20:00:00 16,2 -1,4 7 4 16 9 WNW 0,0
17.03.2019 19:00:00 18,2 -1,2 11 6 32 17 WNW -
17.03.2019 18:00:00 19,9 -1,2 17 9 31 17 WNW 0,0
17.03.2019 17:00:00 20,4 -1,4 15 8 30 16 WNW 0,0
17.03.2019 16:00:00 20,8 -1,2 13 7 31 17 NW 0,0
17.03.2019 15:00:00 20,7 -0,7 10 5 28 15 NW 0,0
17.03.2019 14:00:00 19,9 -1,2 11 6 23 12 NW 0,0
17.03.2019 13:00:00 19,8 -0,3 6 4 18 10 NW -
17.03.2019 12:00:00 17,8 1,3 10 5 23 12 WNW 0,0
17.03.2019 11:00:00 16,2 0,6 12 6 17 9 WNW 0,0
17.03.2019 10:00:00 14,6 -0,7 13 7 19 10 WNW 0,0
17.03.2019 09:00:00 13,9 -1,4 6 3 11 6 NW 0,0
17.03.2019 08:00:00 12,5 -2,5 3 2 9 5 N 0,0
17.03.2019 07:00:00 13,3 -2,2 1 1 8 4 NNW -
17.03.2019 06:00:00 12,6 -1,7 6 3 10 6 NW 0,0
17.03.2019 05:00:00 12,5 -1,2 2 1 5 3 SSE 0,0
17.03.2019 04:00:00 12,5 -0,5 3 2 9 5 NW 0,0
17.03.2019 03:00:00 13,1 -0,5 1 1 11 6 W 0,0
17.03.2019 02:00:00 14,1 -0,7 6 4 16 9 NW 0,0
17.03.2019 01:00:00 14,5 0,0 6 3 15 8 WSW -
17.03.2019 00:00:00 14,5 0,6 2 1 14 8 NW 0,0
16.03.2019 23:00:00 15,6 0,2 8 5 27 14 W 0,0
16.03.2019 22:00:00 17,2 -2,0 17 9 28 15 W 0,0
16.03.2019 21:00:00 17,5 -3,9 6 4 14 8 W 0,0
16.03.2019 20:00:00 18,4 -5,1 6 3 12 6 WNW 0,0
16.03.2019 19:00:00 21,3 -4,2 9 5 22 12 NNW -
16.03.2019 18:00:00 23,6 -5,4 14 8 29 16 WNW 0,0
16.03.2019 17:00:00 24,0 -5,1 14 8 26 14 WNW 0,0
16.03.2019 16:00:00 24,3 -4,2 13 7 26 14 WNW 0,0
16.03.2019 15:00:00 24,0 -3,3 11 6 23 12 W 0,0
16.03.2019 14:00:00 23,3 -2,5 10 6 23 12 W 0,0
16.03.2019 13:00:00 21,6 -1,7 12 6 21 11 WNW -
16.03.2019 12:00:00 21,3 -0,7 11 6 20 11 W 0,0
16.03.2019 11:00:00 21,1 -2,2 4 2 7 4 WNW 0,0
16.03.2019 10:00:00 19,3 -3,6 3 2 6 3 WNW 0,0
16.03.2019 09:00:00 18,0 -4,2 1 1 4 2 WNW 0,0
16.03.2019 08:00:00 16,2 -5,7 2 1 11 6 NNE 0,0
16.03.2019 07:00:00 16,8 -5,7 5 3 12 6 ENE -
16.03.2019 06:00:00 15,1 -6,0 9 5 14 8 ENE 0,0
16.03.2019 05:00:00 15,8 -6,0 7 4 13 7 NE 0,0
16.03.2019 04:00:00 15,3 -5,7 9 5 16 9 ENE 0,0
16.03.2019 03:00:00 16,9 -5,7 5 3 11 6 E 0,0
16.03.2019 02:00:00 16,6 -5,4 9 5 14 8 E 0,0
16.03.2019 01:00:00 15,9 -5,7 7 4 11 6 E -
16.03.2019 00:00:00 17,6 -5,1 4 2 7 4 N 0,0
15.03.2019 23:00:00 17,7 -5,1 3 2 11 6 NNW 0,0
15.03.2019 22:00:00 17,9 -5,4 6 3 12 6 NNW 0,0
15.03.2019 21:00:00 18,7 -6,0 2 1 4 2 E 0,0
15.03.2019 20:00:00 19,3 -6,4 2 1 5 3 N 0,0
15.03.2019 19:00:00 21,8 -4,5 4 2 14 8 NW -
15.03.2019 18:00:00 22,8 -3,6 7 4 16 8 WNW 0,0
15.03.2019 17:00:00 23,2 -2,5 7 4 18 10 NW 0,0
15.03.2019 16:00:00 22,6 -2,2 9 5 22 12 NNW 0,0
15.03.2019 15:00:00 22,2 -2,0 5 3 17 9 NW 0,0
15.03.2019 14:00:00 21,2 -2,0 7 4 17 9 NW 0,0
15.03.2019 13:00:00 20,6 -2,5 8 5 21 11 WNW -
15.03.2019 12:00:00 21,0 -2,7 7 4 16 9 SSE 0,0
15.03.2019 11:00:00 20,1 -1,7 8 4 13 7 E 0,0
15.03.2019 10:00:00 17,5 -3,9 2 1 5 3 S 0,0
15.03.2019 09:00:00 15,3 -5,7 1 0 21 11 NE 0,0
15.03.2019 08:00:00 12,5 -7,1 16 9 21 11 E 0,0
15.03.2019 07:00:00 13,6 -7,1 4 2 19 10 E -
15.03.2019 06:00:00 13,4 -6,7 8 5 25 14 E 0,0
15.03.2019 05:00:00 13,4 -6,7 13 7 26 14 ESE 0,0
15.03.2019 04:00:00 13,1 -6,4 16 8 22 12 SE 0,0
15.03.2019 03:00:00 13,1 -6,4 10 6 18 10 ESE 0,0
15.03.2019 02:00:00 12,6 -7,1 10 5 15 8 ESE 0,0
15.03.2019 01:00:00 13,4 -6,7 7 4 17 9 E -
15.03.2019 00:00:00 14,3 -6,7 10 6 20 11 SE 0,0
14.03.2019 23:00:00 14,5 -6,4 15 8 22 12 SE 0,0
14.03.2019 22:00:00 14,0 -6,7 14 7 19 10 SE 0,0
14.03.2019 21:00:00 14,4 -7,1 13 7 19 10 SE 0,0
14.03.2019 20:00:00 14,8 -7,8 4 2 9 5 ESE 0,0
14.03.2019 19:00:00 17,9 -7,5 5 3 13 7 E -
14.03.2019 18:00:00 20,1 -6,4 6 3 15 8 ENE 0,0
14.03.2019 17:00:00 20,1 -6,4 7 4 16 9 ENE 0,0
14.03.2019 16:00:00 20,0 -4,5 5 3 16 9 NE 0,0
14.03.2019 15:00:00 19,5 -2,7 5 3 16 8 ENE 0,0
14.03.2019 14:00:00 17,9 -3,0 5 3 17 9 N 0,0
14.03.2019 13:00:00 17,6 -2,7 4 2 16 9 SE -
14.03.2019 12:00:00 16,4 -2,2 5 3 27 15 ENE 0,0
14.03.2019 11:00:00 14,7 -2,7 10 5 24 13 E 0,0
14.03.2019 10:00:00 13,6 -3,3 13 7 19 10 E 0,0
14.03.2019 09:00:00 11,9 -3,9 10 6 19 11 ESE 0,0
14.03.2019 08:00:00 9,2 -5,4 11 6 22 12 E 0,0
14.03.2019 07:00:00 8,2 -5,7 12 7 23 12 E -
14.03.2019 06:00:00 8,5 -5,7 16 9 21 12 E 0,0
14.03.2019 05:00:00 9,6 -6,0 12 7 23 12 E 0,0
14.03.2019 04:00:00 9,9 -5,7 11 6 26 14 SE 0,0
14.03.2019 03:00:00 10,2 -5,4 13 7 23 13 SSE 0,0
14.03.2019 02:00:00 11,2 -5,4 4 2 24 13 SSE 0,0
14.03.2019 01:00:00 11,7 -4,2 4 2 18 10 S -
14.03.2019 00:00:00 12,3 -3,9 5 3 27 14 NNW 0,0
13.03.2019 23:00:00 13,3 -2,7 5 3 22 12 SSW 0,0
13.03.2019 22:00:00 13,6 -2,0 6 3 12 7 SSW 0,0
13.03.2019 21:00:00 14,6 -0,3 1 1 16 9 SW 0,0
13.03.2019 20:00:00 15,0 0,0 6 3 14 8 ENE 0,0
13.03.2019 19:00:00 17,2 0,9 6 4 18 10 ENE -
13.03.2019 18:00:00 19,0 1,9 7 4 19 10 ENE 0,0
13.03.2019 17:00:00 19,2 2,5 5 3 18 10 E 0,0
13.03.2019 16:00:00 16,8 2,1 5 3 21 12 NNE 0,0
13.03.2019 15:00:00 - - - - - - - -
13.03.2019 14:00:00 15,6 3,8 9 5 37 20 NNW 0,0
13.03.2019 13:00:00 15,5 4,3 11 6 21 11 NNW -
13.03.2019 12:00:00 14,1 3,8 9 5 19 10 NW 0,0
13.03.2019 11:00:00 13,9 3,9 7 4 18 10 NW 0,0
13.03.2019 10:00:00 13,3 3,6 5 3 13 7 NNW 0,0
13.03.2019 09:00:00 12,0 5,6 3 1 14 7 ESE 0,0

tt = temperature
td = dewpoint
ff = wind speed
fx = gusts
dd = wind direction
rr = precipitation

Next stations